1994 THOMAS:TOMAS (1994078S06184)


On this page: IBTrACS data - Map and Plots - Positions - Intensities - Original source data

Summary

Start Mar 19
End Mar 27
Basin SP
LMI 105 kt
Sources jtwc_sh
nadi
wellington
neumann
In WMO? Yes
Previous storm 1994 MISSING (NI)
Previous in basin 1994 THEODORE (SP)
Concurrent storms 1994 LITANNE (SI)
1994 MARIOLA (SI)
1994 SHARON (SI)
1994 NADIA (SI)
1994 MISSING (NI)
1994 THOMAS (SP)
1994 USHA (SP)
1994 USHA0 (SP)
1994 ODILLE (SI)
Next in basin 1994 USHA (SP)
Next storm 1994 USHA (SP)

top of page IBTrACS Data: File Access

top of page HURSAT Data: File Access

Image of storm

top of page Plots:

Map of storm track will not appear if FTP is down
Time series of cyclone Maximum Sustained Wind will not appear if FTP is down
Time series of cyclone Minimum Central Pressure will not appear if FTP is down

top of page Track Data:Position

jtwc_sh nadi wellington neumann
Date Lat Lon Lat Lon Lat Lon Lat Lon
1994-03-19 00:00:00 -6.4 -175.6 -6.4 -175.6
1994-03-19 06:00:00 -6.9 -176.0 -6.9 -176.0
1994-03-19 12:00:00 -7.3 -176.5 -7.3 -176.5
1994-03-19 18:00:00 -7.6 -177.0 -7.6 -177.0
1994-03-20 00:00:00 -7.8 -177.7 -7.8 -177.7
1994-03-20 06:00:00 -7.9 -178.5 -10.0 -177.6 -10.0 -177.6 -7.9 -178.5
1994-03-20 12:00:00 -7.8 -179.5 -9.5 -178.7 -9.5 -178.7 -7.8 -179.5
1994-03-20 18:00:00 -7.5 179.2 -9.0 180.0 -9.0 180.0 -7.5 179.2
1994-03-21 00:00:00 -7.5 178.1 -8.9 178.6 -8.9 178.6 -7.5 178.1
1994-03-21 06:00:00 -8.2 177.0 -9.0 177.6 -9.0 177.6 -8.2 177.0
1994-03-21 12:00:00 -9.4 175.7 -9.3 176.5 -9.3 176.5 -9.4 175.7
1994-03-21 18:00:00 -10.7 174.1 -10.1 175.0 -10.1 175.0 -10.7 174.1
1994-03-22 00:00:00 -11.7 172.4 -11.5 172.0 -11.5 172.0 -11.7 172.4
1994-03-22 06:00:00 -12.0 171.7 -11.7 171.7 -11.7 171.7 -12.0 171.7
1994-03-22 12:00:00 -12.4 171.2 -12.1 171.5 -12.1 171.5 -12.4 171.2
1994-03-22 18:00:00 -13.1 170.8 -12.5 171.4 -12.5 171.4 -13.1 170.8
1994-03-23 00:00:00 -14.0 170.6 -13.5 171.3 -13.5 171.3 -14.0 170.6
1994-03-23 06:00:00 -14.3 170.6 -14.2 170.7 -14.2 170.7 -14.3 170.6
1994-03-23 12:00:00 -14.7 170.6 -14.6 170.4 -14.6 170.4 -14.7 170.6
1994-03-23 18:00:00 -15.4 170.7 -15.2 170.3 -15.2 170.3 -15.4 170.7
1994-03-24 00:00:00 -16.5 171.2 -16.3 170.9 -16.3 170.9 -16.5 171.2
1994-03-24 06:00:00 -17.4 171.5 -17.4 171.3 -17.4 171.3 -17.4 171.5
1994-03-24 12:00:00 -18.4 172.2 -18.4 172.1 -18.4 172.1 -18.4 172.2
1994-03-24 18:00:00 -19.4 173.0 -19.3 173.2 -19.3 173.2 -19.4 173.0
1994-03-25 00:00:00 -20.5 174.0 -20.6 174.0 -20.6 174.0 -20.5 174.0
jtwc_sh nadi wellington neumann
1994-03-25 06:00:00 -21.8 175.4 -21.8 175.7 -21.8 175.7 -21.8 175.4
1994-03-25 12:00:00 -23.1 177.6 -22.7 177.8 -22.7 177.8 -23.1 177.6
1994-03-25 18:00:00 -23.9 179.8 -23.4 -179.8 -23.4 -179.8 -23.9 179.8
1994-03-26 00:00:00 -24.2 -178.0 -23.9 -177.8 -23.9 -177.8 -24.2 -178.0
1994-03-26 06:00:00 -24.3 -175.9 -24.6 -175.0 -24.6 -175.0 -24.3 -175.9
1994-03-26 12:00:00 -24.9 -172.8 -24.9 -172.8 -24.9 -172.8
1994-03-26 18:00:00 -25.4 -170.5 -25.4 -170.5 -25.4 -170.5
1994-03-27 00:00:00 -26.0 -166.0 -26.0 -166.0
1994-03-27 06:00:00 -26.0 -162.5 -26.0 -162.5

top of pageTrack Data:Intensity

jtwc_sh nadi wellington neumann
Date Wind Pres Wind Pres Wind Pres Wind Pres
1994-03-19 00:00:00 15. 15.
1994-03-19 06:00:00 15. 15.
1994-03-19 12:00:00 20. 20.
1994-03-19 18:00:00 20. 20.
1994-03-20 00:00:00 20. 20.
1994-03-20 06:00:00 25. 25. 999. 25.
1994-03-20 12:00:00 25. 25. 999. 25.
1994-03-20 18:00:00 25. 25. 999. 25.
1994-03-21 00:00:00 25. 25. 999. 25.
1994-03-21 06:00:00 25. 25. 999. 25.
1994-03-21 12:00:00 25. 25. 998. 25.
1994-03-21 18:00:00 30. 25. 998. 30.
1994-03-22 00:00:00 30. 30. 997. 30.
1994-03-22 06:00:00 35. 30. 997. 35.
1994-03-22 12:00:00 35. 30. 997. 35.
1994-03-22 18:00:00 35. 35. 995. 35.
1994-03-23 00:00:00 50. 45. 987. 50.
1994-03-23 06:00:00 50. 50. 985. 50.
1994-03-23 12:00:00 55. 55. 980. 55.
1994-03-23 18:00:00 65. 60. 975. 65.
1994-03-24 00:00:00 75. 65. 970. 75.
1994-03-24 06:00:00 85. 70. 965. 85.
1994-03-24 12:00:00 95. 75. 960. 95.
1994-03-24 18:00:00 100. 75. 960. 100.
1994-03-25 00:00:00 105. 80. 955. 105.
jtwc_sh nadi wellington neumann
1994-03-25 06:00:00 105. 80. 955. 105.
1994-03-25 12:00:00 95. 80. 955. 95.
1994-03-25 18:00:00 75. 75. 960. 75.
1994-03-26 00:00:00 65. 70. 965. 65.
1994-03-26 06:00:00 50. 60. 975. 50.
1994-03-26 12:00:00 55. 980. 40.
1994-03-26 18:00:00 45. 987. 35.
1994-03-27 00:00:00 35. 994. 30.
1994-03-27 06:00:00 25. 1000. 25.

top of page Links to source data

Source Source file Format
jtwc_sh bsh241994.txt ATCF
nadi RSMC-Nadi-1993-94-BT-Data.txt:Line=67:THOMAS Text table
wellington TC_BT_1967_2006.csv:Line=4861:TOMAS Text table
neumann tracks.sh:Storm=1007:TOMAS:BSH241994:JTWC&NZeal19039 HURDAT